Bookmark and Share
Track history (hours):
 

Sophie Blue

Last reported at 2014-Apr-19 00:33 UTC. Time now 2014-Apr-19 02:05 UTC.
Position N 44°05' E 008°30'.

; draft 2.7 m.

Type: Other ship. MMSI: 255901270.

NotesDate/timePositionNaut miles runAvg speedWind from/ knotsBaromVisibWave heightAir tempDewpointWater temp
2014-Apr-19 00:33N 44°05' E 008°30'1111.4
2014-Apr-18 23:33N 44°07' E 008°46'1111.0
2014-Apr-18 22:33N 44°06' E 009°01'1312.6
2014-Apr-18 21:33N 44°03' E 009°18'1313.0
2014-Apr-18 20:33N 43°58' E 009°35'7 6.9
2014-Apr-18 19:33N 43°55' E 009°43'1313.1
2014-Apr-18 18:33N 43°53' E 010°01'10 9.5
2014-Apr-18 17:33N 43°52' E 010°14'0 0.0
2014-Apr-18 16:33N 43°52' E 010°14'0 0.0
2014-Apr-18 15:33N 43°52' E 010°14'0 0.0
2014-Apr-18 14:33N 43°52' E 010°14'0 0.0
2014-Apr-18 13:33N 43°52' E 010°14'0 0.0
2014-Apr-18 12:33N 43°52' E 010°14'0 0.0
2014-Apr-18 11:33N 43°52' E 010°15'0 0.0
2014-Apr-18 10:33N 43°52' E 010°15'0 0.0
2014-Apr-18 09:33N 43°52' E 010°15'0 0.0
2014-Apr-18 08:33N 43°52' E 010°15'0 0.0
2014-Apr-18 07:33N 43°52' E 010°15'0 0.0
2014-Apr-18 06:33N 43°52' E 010°14'0 0.0
2014-Apr-18 05:33N 43°52' E 010°14'0 0.0
2014-Apr-18 04:33N 43°52' E 010°15'0 0.0
2014-Apr-18 03:33N 43°52' E 010°14'0 0.0
2014-Apr-18 02:33N 43°52' E 010°15'0 0.0
2014-Apr-18 01:33N 43°52' E 010°14'0 0.0
2014-Apr-18 00:33N 43°52' E 010°15'0 0.0
2014-Apr-17 23:33N 43°52' E 010°15'0 0.0
2014-Apr-17 22:33N 43°52' E 010°15'0 0.0
2014-Apr-17 21:33N 43°52' E 010°15'0 0.0
2014-Apr-17 20:33N 43°52' E 010°15'0 0.0
2014-Apr-17 19:33N 43°52' E 010°15'0 0.0
2014-Apr-17 18:33N 43°52' E 010°15'0 0.0
2014-Apr-17 17:33N 43°52' E 010°15'0 0.0
2014-Apr-17 16:33N 43°52' E 010°14'0 0.0
2014-Apr-17 15:33N 43°52' E 010°15'0 0.0
2014-Apr-17 14:33N 43°52' E 010°15'3 3.1
2014-Apr-17 13:34N 43°52' E 010°10'3 3.0
2014-Apr-17 12:34N 43°52' E 010°14'0 0.1
2014-Apr-17 11:34N 43°52' E 010°15'0 0.0
2014-Apr-17 10:33N 43°52' E 010°15'0 0.0
2014-Apr-17 09:34N 43°52' E 010°15'0 0.0
2014-Apr-17 08:33N 43°52' E 010°15'0 0.0
2014-Apr-17 07:33N 43°52' E 010°15'0 0.0
2014-Apr-17 06:34N 43°52' E 010°15'0 0.0
2014-Apr-17 05:34N 43°52' E 010°15'0 0.0
2014-Apr-17 04:34N 43°52' E 010°15'0 0.0
2014-Apr-17 03:34N 43°52' E 010°15'0 0.0
2014-Apr-17 02:34N 43°52' E 010°15'0 0.0
2014-Apr-17 01:34N 43°52' E 010°15'0 0.0
2014-Apr-17 00:33N 43°52' E 010°15'0 0.0
2014-Apr-16 23:33N 43°52' E 010°15'0 0.0
2014-Apr-16 22:34N 43°52' E 010°15'0 0.0
2014-Apr-16 21:34N 43°52' E 010°15'0 0.0
2014-Apr-16 20:33N 43°52' E 010°15'0 0.0
2014-Apr-16 19:34N 43°52' E 010°15'0 0.0
2014-Apr-16 18:33N 43°52' E 010°15'0 0.0
2014-Apr-16 17:33N 43°52' E 010°15'0 0.0
2014-Apr-16 16:33N 43°52' E 010°15'0 0.0
2014-Apr-16 15:21N 43°52' E 010°15'0 0.0
2014-Apr-16 14:33N 43°52' E 010°15'0 0.0
2014-Apr-16 13:33N 43°52' E 010°15'0 0.0
2014-Apr-16 12:33N 43°52' E 010°15'0 0.0
2014-Apr-16 11:13N 43°52' E 010°15'0 0.0
2014-Apr-16 10:34N 43°52' E 010°15'0 0.0
2014-Apr-16 09:33N 43°52' E 010°15'0 0.0
2014-Apr-16 08:34N 43°52' E 010°15'0 0.0
2014-Apr-16 07:33N 43°52' E 010°15'0 0.0
2014-Apr-16 06:33N 43°52' E 010°15'0 0.0
2014-Apr-16 05:33N 43°52' E 010°15'0 0.0
2014-Apr-16 04:33N 43°52' E 010°15'0 0.0
2014-Apr-16 03:33N 43°52' E 010°15'0 0.0
2014-Apr-16 02:33N 43°52' E 010°15'0 0.0
2014-Apr-16 01:33N 43°52' E 010°15'0 0.0
2014-Apr-16 00:33N 43°52' E 010°15'0 0.0
2014-Apr-15 23:33N 43°52' E 010°15'0 0.0
2014-Apr-15 22:33N 43°52' E 010°15'0 0.0
2014-Apr-15 21:33N 43°52' E 010°15'0 0.0
2014-Apr-15 20:33N 43°52' E 010°15'0 0.0
2014-Apr-15 19:33N 43°52' E 010°15'0 0.0
2014-Apr-15 18:33N 43°52' E 010°15'0 0.0
2014-Apr-15 17:33N 43°52' E 010°15'0 0.0
2014-Apr-15 16:33N 43°52' E 010°15'0 0.0
2014-Apr-15 15:33N 43°52' E 010°15'0 0.0
2014-Apr-15 14:33N 43°52' E 010°15'0 0.0
2014-Apr-15 12:34N 43°52' E 010°15'0 0.0
2014-Apr-15 11:34N 43°52' E 010°15'0 0.0
2014-Apr-15 10:34N 43°52' E 010°15'0 0.0
2014-Apr-15 09:34N 43°52' E 010°15'0 0.0
2014-Apr-15 08:34N 43°52' E 010°15'0 0.0
2014-Apr-15 07:34N 43°52' E 010°15'0 0.0
2014-Apr-15 06:34N 43°52' E 010°15'0 0.0
2014-Apr-15 05:34N 43°52' E 010°15'0 0.0
2014-Apr-15 03:34N 43°52' E 010°15'0 0.0
2014-Apr-15 02:34N 43°52' E 010°15'0 0.0
2014-Apr-15 01:34N 43°52' E 010°15'0 0.0
2014-Apr-15 00:34N 43°52' E 010°15'0 0.0
2014-Apr-14 23:34N 43°52' E 010°15'0 0.0
2014-Apr-14 22:34N 43°52' E 010°15'0 0.0
2014-Apr-14 21:34N 43°52' E 010°15'0 0.0
2014-Apr-14 20:34N 43°52' E 010°15'0 0.0
2014-Apr-14 19:34N 43°52' E 010°15'0 0.0
2014-Apr-14 18:34N 43°52' E 010°15'0 0.0
2014-Apr-14 17:34N 43°52' E 010°15'0 0.0
2014-Apr-14 16:34N 43°52' E 010°15'0 0.0
2014-Apr-14 15:34N 43°52' E 010°15'0 0.0
2014-Apr-14 14:34N 43°52' E 010°15'0 0.0
2014-Apr-14 13:34N 43°52' E 010°15'0 0.0
2014-Apr-14 11:33N 43°52' E 010°15'0 0.0
2014-Apr-14 10:33N 43°52' E 010°15'0 0.0
2014-Apr-14 09:33N 43°52' E 010°15'0 0.0
2014-Apr-14 08:33N 43°52' E 010°15'  
2014-Apr-10 16:03N 43°52' E 010°15'0 0.0
2014-Apr-10 15:33N 43°52' E 010°15'0 0.0
2014-Apr-10 14:33N 43°52' E 010°15'0 0.0
2014-Apr-10 13:33N 43°52' E 010°15'0 0.0
2014-Apr-10 12:33N 43°52' E 010°15'0 0.0
2014-Apr-10 11:33N 43°52' E 010°15'  

Dump ship's entire track history

sailing weather and tide predictions

Sophie Blue — CRXK3 — position and weather